Time;durP1;ratioP1;P1;durP2;ratioP2;P2;SDS_P1;SDS_P2;PMS_P1;PMS_P2;Temp;Humidity;BMP_temperature;BMP_pressure;BME280_temperature;BME280_humidity;BME280_pressure;Samples;Min_cycle;Max_cycle;Signal;HPM_P1;HPM_P2
2023/11/14 00:02:13;;;;;;;24.63;15.83;;;;;;;7.24;100.00;99838.19;1389576;89;22086;-83
2023/11/14 00:04:39;;;;;;;21.93;15.80;;;;;;;7.27;100.00;99834.94;1541738;89;21139;-81
2023/11/14 00:07:06;;;;;;;21.30;16.53;;;;;;;7.29;100.00;99842.22;1384136;89;21206;-83
2023/11/14 00:09:33;;;;;;;25.87;16.90;;;;;;;7.31;100.00;99841.58;1390113;89;21481;-84
2023/11/14 00:11:59;;;;;;;25.63;16.87;;;;;;;7.31;100.00;99832.36;1383813;89;21303;-81
2023/11/14 00:14:26;;;;;;;26.00;17.17;;;;;;;7.30;100.00;99842.56;1389877;89;21494;-83
2023/11/14 00:16:52;;;;;;;25.67;17.93;;;;;;;7.29;100.00;99841.73;1384062;89;21372;-85
2023/11/14 00:19:19;;;;;;;26.07;15.80;;;;;;;7.28;100.00;99837.91;1389968;89;21302;-84
2023/11/14 00:21:46;;;;;;;33.00;18.73;;;;;;;7.29;100.00;99838.27;1541571;89;21331;-84
2023/11/14 00:24:13;;;;;;;23.27;16.57;;;;;;;7.27;100.00;99827.05;1383291;89;21302;-83
2023/11/14 00:26:39;;;;;;;22.40;15.10;;;;;;;7.26;100.00;99828.86;1384548;89;21250;-83
2023/11/14 00:29:05;;;;;;;24.47;15.77;;;;;;;7.23;100.00;99827.83;1456683;89;22283;-84
2023/11/14 00:31:32;;;;;;;25.17;16.23;;;;;;;7.22;100.00;99820.42;1461756;89;21412;-84
2023/11/14 00:33:58;;;;;;;25.10;16.77;;;;;;;7.21;100.00;99812.16;1461612;89;21382;-85
2023/11/14 00:36:27;;;;;;;25.40;17.10;;;;;;;7.24;100.00;99810.55;1458080;89;22424;-82
2023/11/14 00:38:59;;;;;;;24.23;15.87;;;;;;;7.24;100.00;99807.09;1460303;89;21597;-84
2023/11/14 00:41:21;;;;;;;24.37;18.20;;;;;;;7.23;100.00;99806.77;1459862;89;21434;-83
2023/11/14 00:43:47;;;;;;;26.30;17.00;;;;;;;7.24;100.00;99797.89;1460921;89;22306;-83
2023/11/14 00:46:13;;;;;;;25.27;16.53;;;;;;;7.24;100.00;99793.94;1462200;89;21512;-83
2023/11/14 00:48:39;;;;;;;30.27;16.87;;;;;;;7.26;100.00;99796.45;1440528;89;21589;-85
2023/11/14 00:51:06;;;;;;;24.03;16.60;;;;;;;7.24;100.00;99790.81;1461742;89;21937;-85
2023/11/14 00:53:32;;;;;;;21.97;15.27;;;;;;;7.23;100.00;99793.12;1446188;89;22262;-85
2023/11/14 00:55:58;;;;;;;25.00;17.30;;;;;;;7.26;100.00;99790.69;1453171;89;21390;-84
2023/11/14 00:58:25;;;;;;;23.33;16.07;;;;;;;7.26;100.00;99774.90;1462168;89;21375;-84
2023/11/14 01:00:51;;;;;;;25.67;17.23;;;;;;;7.26;100.00;99766.17;1458294;89;21552;-90
2023/11/14 01:03:20;;;;;;;25.97;16.67;;;;;;;7.26;100.00;99763.05;1446636;89;21368;-89
2023/11/14 01:05:46;;;;;;;22.30;15.53;;;;;;;7.27;100.00;99762.56;1443490;89;21486;-89
2023/11/14 01:08:13;;;;;;;21.43;16.20;;;;;;;7.26;100.00;99756.96;1458550;89;21493;-87
2023/11/14 01:10:39;;;;;;;25.77;15.10;;;;;;;7.29;100.00;99754.87;1458819;89;21405;-86
2023/11/14 01:13:05;;;;;;;20.80;14.40;;;;;;;7.30;100.00;99751.25;1459913;89;22427;-88
2023/11/14 01:15:32;;;;;;;20.93;13.60;;;;;;;7.31;100.00;99744.18;1456418;89;21552;-85
2023/11/14 01:22:39;;;;;;;23.63;13.37;;;;;;;7.38;100.00;99743.47;1384355;94;21575;-86
2023/11/14 01:25:08;;;;;;;22.53;13.20;;;;;;;7.45;100.00;99745.03;1386140;94;21395;-87
2023/11/14 01:27:34;;;;;;;19.13;14.27;;;;;;;7.49;100.00;99731.94;1386421;93;22407;-87
2023/11/14 01:30:00;;;;;;;17.93;13.17;;;;;;;7.53;100.00;99722.77;1385058;94;21603;-89
2023/11/14 01:32:26;;;;;;;16.20;12.40;;;;;;;7.57;100.00;99709.67;1387380;94;21469;-87
2023/11/14 01:34:52;;;;;;;16.37;12.37;;;;;;;7.61;100.00;99708.39;1372939;94;21551;-87
2023/11/14 01:37:18;;;;;;;20.50;13.57;;;;;;;7.64;100.00;99703.32;1387906;94;21507;-83
2023/11/14 01:39:45;;;;;;;17.37;11.43;;;;;;;7.67;100.00;99701.22;1383685;94;23142;-86
2023/11/14 01:42:12;;;;;;;16.53;11.27;;;;;;;7.71;100.00;99704.41;1381048;94;21433;-86
2023/11/14 01:44:38;;;;;;;15.00;11.37;;;;;;;7.74;100.00;99704.11;1373038;94;21455;-88
2023/11/14 01:47:05;;;;;;;16.33;11.23;;;;;;;7.78;100.00;99696.73;1368863;94;21462;-86
2023/11/14 01:49:31;;;;;;;14.60;11.23;;;;;;;7.83;100.00;99687.91;1385716;94;21478;-87
2023/11/14 01:51:58;;;;;;;16.77;12.10;;;;;;;7.86;100.00;99681.03;1386865;94;21631;-87
2023/11/14 01:54:25;;;;;;;14.50;11.57;;;;;;;7.89;100.00;99676.28;1368098;94;21602;-89
2023/11/14 01:56:51;;;;;;;17.97;12.37;;;;;;;7.93;100.00;99671.53;1386809;91;21424;-87
2023/11/14 01:59:18;;;;;;;16.50;11.20;;;;;;;7.98;100.00;99686.42;1459776;89;21426;-84
2023/11/14 02:01:44;;;;;;;15.43;11.47;;;;;;;8.03;100.00;99678.08;1445605;89;22141;-86
2023/11/14 02:04:15;;;;;;;14.43;10.77;;;;;;;8.07;100.00;99674.15;1457775;89;21338;-89
2023/11/14 02:06:41;;;;;;;16.37;10.38;;;;;;;8.10;100.00;99675.99;1454402;89;21405;-87
2023/11/14 02:09:07;;;;;;;15.77;10.87;;;;;;;8.14;100.00;99657.59;1459855;89;21557;-86
2023/11/14 02:11:35;;;;;;;18.83;9.90;;;;;;;8.17;100.00;99652.52;1457564;89;22461;-83
2023/11/14 02:14:01;;;;;;;19.97;11.03;;;;;;;8.19;100.00;99620.72;1383018;89;22094;-83
2023/11/14 02:16:47;;;;;;;15.50;10.60;;;;;;;8.21;100.00;99624.04;1390088;89;22315;-82
2023/11/14 02:19:13;;;;;;;14.93;10.43;;;;;;;8.21;100.00;99624.04;1387928;89;21481;-86
2023/11/14 02:21:43;;;;;;;16.67;10.70;;;;;;;8.23;100.00;99628.65;1389924;89;21265;-86
2023/11/14 02:24:16;;;;;;;16.10;10.17;;;;;;;8.23;100.00;99630.82;1380351;89;22204;-84
2023/11/14 02:26:50;;;;;;;16.07;9.90;;;;;;;8.26;100.00;99621.78;1541714;89;22186;-87
2023/11/14 02:29:22;;;;;;;16.73;10.20;;;;;;;8.28;100.00;99626.39;1383597;89;21258;-85
2023/11/14 02:31:49;;;;;;;13.80;9.30;;;;;;;8.29;100.00;99620.16;1501884;89;21375;-86
2023/11/14 02:34:16;;;;;;;16.30;9.57;;;;;;;8.29;100.00;99606.48;1459719;89;21457;-85
2023/11/14 02:36:43;;;;;;;14.63;10.23;;;;;;;8.30;100.00;99605.98;1458369;89;21367;-87
2023/11/14 02:39:10;;;;;;;14.43;9.60;;;;;;;8.32;100.00;99610.63;1447413;89;22505;-86
2023/11/14 02:41:36;;;;;;;20.10;10.60;;;;;;;8.33;100.00;99597.77;1461491;89;21442;-88
2023/11/14 02:44:03;;;;;;;14.07;9.93;;;;;;;8.35;100.00;99589.22;1458354;89;21517;-88
2023/11/14 02:46:30;;;;;;;12.10;8.37;;;;;;;8.38;100.00;99592.05;1458601;89;22314;-87
2023/11/14 02:48:56;;;;;;;13.83;8.97;;;;;;;8.41;100.00;99591.27;1456519;89;21999;-88
2023/11/14 02:51:22;;;;;;;18.43;9.07;;;;;;;8.44;100.00;99580.41;1461686;89;21478;-85
2023/11/14 02:53:49;;;;;;;13.60;9.87;;;;;;;8.48;100.00;99584.38;1459406;89;21412;-85
2023/11/14 02:56:16;;;;;;;13.90;9.30;;;;;;;8.51;100.00;99594.63;1457809;89;21367;-85
2023/11/14 02:58:42;;;;;;;12.40;9.47;;;;;;;8.54;100.00;99598.27;1440103;89;21471;-86
2023/11/14 03:01:11;;;;;;;17.67;9.17;;;;;;;8.58;100.00;99582.48;1440812;89;21412;-87
2023/11/14 03:03:37;;;;;;;19.87;10.13;;;;;;;8.59;100.00;99572.26;1461583;89;22240;-86
2023/11/14 03:06:04;;;;;;;15.83;9.10;;;;;;;8.62;100.00;99576.90;1452992;89;21530;-85
2023/11/14 03:08:30;;;;;;;13.17;8.30;;;;;;;8.63;100.00;99565.35;1459495;89;22328;-86
2023/11/14 03:10:56;;;;;;;14.97;9.27;;;;;;;8.65;100.00;99565.53;1459352;89;21412;-87
2023/11/14 03:13:23;;;;;;;14.10;8.73;;;;;;;8.66;100.00;99562.41;1458111;89;21516;-86
2023/11/14 03:15:49;;;;;;;13.70;8.63;;;;;;;8.65;100.00;99555.48;1459197;89;21331;-84
2023/11/14 03:18:15;;;;;;;13.00;9.20;;;;;;;8.66;100.00;99561.08;1453633;89;21649;-87
2023/11/14 03:20:42;;;;;;;17.13;9.27;;;;;;;8.67;100.00;99560.13;1441195;89;21412;-87
2023/11/14 03:23:08;;;;;;;15.03;8.67;;;;;;;8.69;100.00;99560.77;1457680;89;21775;-87
2023/11/14 03:25:34;;;;;;;15.07;9.37;;;;;;;8.69;100.00;99562.09;1456216;89;21363;-86
2023/11/14 03:28:01;;;;;;;15.43;9.10;;;;;;;8.70;100.00;99567.72;1457644;89;21352;-86
2023/11/14 03:30:27;;;;;;;15.77;8.73;;;;;;;8.74;100.00;99575.64;1383840;89;21250;-89
2023/11/14 03:32:54;;;;;;;15.20;9.27;;;;;;;8.74;100.00;99580.92;1399912;89;21398;-86
2023/11/14 03:35:20;;;;;;;14.37;8.37;;;;;;;8.78;100.00;99579.64;1458792;89;21537;-85
2023/11/14 03:37:46;;;;;;;13.23;8.60;;;;;;;8.79;100.00;99579.47;1459122;89;22358;-87
2023/11/14 03:40:13;;;;;;;18.30;9.53;;;;;;;8.79;100.00;99578.15;1460469;89;21367;-85
2023/11/14 03:42:39;;;;;;;16.10;9.30;;;;;;;8.80;100.00;99589.06;1458103;89;21522;-90
2023/11/14 03:45:07;;;;;;;22.23;9.70;;;;;;;8.79;100.00;99566.28;1452036;89;21551;-85
2023/11/14 03:47:33;;;;;;;14.93;8.90;;;;;;;8.79;100.00;99568.09;1458618;89;22351;-85
2023/11/14 03:49:59;;;;;;;13.70;9.07;;;;;;;8.76;100.00;99580.28;1457072;89;22032;-84
2023/11/14 03:52:39;;;;;;;;;;;;;;;;;;;;;
2023/11/14 03:54:53;;;;;;;16.20;9.80;;;;;;;8.76;100.00;99587.70;1458580;89;21419;-87
2023/11/14 03:57:21;;;;;;;18.40;9.83;;;;;;;8.77;100.00;99599.08;1458005;89;22203;-87
2023/11/14 03:59:47;;;;;;;15.83;10.17;;;;;;;8.78;100.00;99588.87;1458149;89;21382;-87
2023/11/14 04:03:08;;;;;;;15.27;10.23;;;;;;;8.77;100.00;99583.24;1456954;89;21457;-89
2023/11/14 04:05:39;;;;;;;18.70;10.83;;;;;;;8.76;100.00;99585.55;1429861;89;22425;-86
2023/11/14 04:08:06;;;;;;;19.30;9.13;;;;;;;8.77;100.00;99566.09;1462196;89;21397;-85
2023/11/14 04:10:32;;;;;;;19.67;10.37;;;;;;;8.76;100.00;99570.55;1460343;89;21531;-86
2023/11/14 04:12:59;;;;;;;16.40;10.03;;;;;;;8.76;100.00;99561.81;1463739;89;21489;-84
2023/11/14 04:15:26;;;;;;;15.43;10.47;;;;;;;8.78;100.00;99558.53;1456089;89;21529;-87
2023/11/14 04:17:52;;;;;;;19.30;10.40;;;;;;;8.79;100.00;99565.45;1458080;89;21449;-84
2023/11/14 04:20:18;;;;;;;19.80;10.30;;;;;;;8.80;100.00;99578.97;1456336;89;21590;-84
2023/11/14 04:22:45;;;;;;;14.43;9.40;;;;;;;8.80;100.00;99589.52;1446717;89;21383;-86
2023/11/14 04:25:11;;;;;;;14.03;9.23;;;;;;;8.83;100.00;99584.43;1461564;89;22732;-88
2023/11/14 04:27:37;;;;;;;13.03;9.20;;;;;;;8.80;100.00;99577.19;1437904;89;21405;-83
2023/11/14 04:30:04;;;;;;;21.37;11.03;;;;;;;8.81;100.00;99589.87;1453753;89;21375;-84
2023/11/14 04:32:31;;;;;;;16.83;10.13;;;;;;;8.81;100.00;99587.23;1456194;89;21375;-86
2023/11/14 04:34:57;;;;;;;18.50;10.07;;;;;;;8.82;100.00;99594.16;1514828;89;22222;-85
2023/11/14 04:37:24;;;;;;;14.80;10.37;;;;;;;8.83;100.00;99594.48;1384723;89;21332;-85
2023/11/14 04:39:50;;;;;;;18.07;10.90;;;;;;;8.84;100.00;99594.84;1390195;89;21287;-85
2023/11/14 04:42:16;;;;;;;20.07;10.43;;;;;;;8.87;100.00;99590.56;1372592;90;22078;-85
2023/11/14 04:44:42;;;;;;;16.13;9.83;;;;;;;8.87;100.00;99591.06;1385095;89;21471;-85
2023/11/14 04:47:08;;;;;;;26.13;12.00;;;;;;;8.91;100.00;99593.22;1390555;89;21287;-84
2023/11/14 04:49:34;;;;;;;15.57;10.27;;;;;;;8.92;100.00;99606.77;1384718;89;21331;-85
2023/11/14 04:52:01;;;;;;;18.27;10.30;;;;;;;8.95;100.00;99618.33;1520911;89;21391;-88
2023/11/14 04:54:28;;;;;;;20.57;11.00;;;;;;;8.98;100.00;99604.81;1384468;89;22137;-84
2023/11/14 04:56:54;;;;;;;14.93;9.47;;;;;;;8.98;100.00;99600.03;1535613;89;21280;-88
2023/11/14 04:59:20;;;;;;;19.80;11.20;;;;;;;8.99;100.00;99609.09;1379569;90;21472;-87
2023/11/14 05:01:47;;;;;;;18.10;10.33;;;;;;;8.99;100.00;99619.66;1397790;90;21361;-81
2023/11/14 05:04:13;;;;;;;18.93;11.23;;;;;;;8.99;100.00;99641.27;1454283;90;21463;-82
2023/11/14 05:06:39;;;;;;;18.17;10.03;;;;;;;9.02;100.00;99650.19;1447662;90;21413;-81
2023/11/14 05:09:06;;;;;;;15.63;10.13;;;;;;;9.02;100.00;99635.67;1454964;90;21567;-84
2023/11/14 05:11:37;;;;;;;21.13;9.97;;;;;;;9.02;100.00;99618.52;1448981;90;22396;-85
2023/11/14 05:14:06;;;;;;;19.87;9.63;;;;;;;9.01;100.00;99616.38;1451912;90;21368;-87
2023/11/14 05:16:40;;;;;;;23.93;12.13;;;;;;;9.00;100.00;99598.04;1450816;89;21589;-86
2023/11/14 05:19:07;;;;;;;13.27;9.20;;;;;;;9.02;100.00;99614.06;1453066;89;21449;-87
2023/11/14 05:21:34;;;;;;;16.27;10.70;;;;;;;9.01;100.00;99622.97;1438179;90;21417;-87
2023/11/14 05:24:01;;;;;;;17.83;12.40;;;;;;;9.02;100.00;99629.07;1453643;90;21368;-83
2023/11/14 05:26:27;;;;;;;27.27;12.30;;;;;;;9.03;100.00;99602.53;1447501;90;21500;-84
2023/11/14 05:28:53;;;;;;;20.90;10.80;;;;;;;9.04;100.00;99575.14;1454412;90;21331;-85
2023/11/14 05:31:19;;;;;;;18.67;9.83;;;;;;;9.02;100.00;99563.91;1453504;90;21486;-84
2023/11/14 05:33:46;;;;;;;18.27;9.53;;;;;;;8.97;100.00;99560.91;1442771;90;22299;-83
2023/11/14 05:36:14;;;;;;;18.80;12.17;;;;;;;8.97;100.00;99552.17;1448795;90;21354;-82
2023/11/14 05:38:40;;;;;;;16.27;10.37;;;;;;;8.96;100.00;99543.44;1451927;89;21434;-84
2023/11/14 05:41:06;;;;;;;17.13;10.77;;;;;;;8.95;100.00;99539.65;1452715;90;21331;-79
2023/11/14 05:43:32;;;;;;;16.67;9.70;;;;;;;8.96;100.00;99551.35;1447138;90;21338;-83
2023/11/14 05:46:00;;;;;;;21.40;11.00;;;;;;;8.97;100.00;99546.39;1446037;90;22434;-84
2023/11/14 05:48:28;;;;;;;13.83;9.67;;;;;;;8.99;100.00;99544.94;1453827;89;21368;-82
2023/11/14 05:50:54;;;;;;;17.30;9.53;;;;;;;9.00;100.00;99530.23;1457260;89;21596;-81
2023/11/14 05:53:20;;;;;;;13.30;9.13;;;;;;;9.01;100.00;99534.55;1434704;90;21472;-82
2023/11/14 05:55:46;;;;;;;20.07;11.77;;;;;;;9.06;100.00;99534.55;1451876;89;21368;-81
2023/11/14 05:58:13;;;;;;;15.17;8.97;;;;;;;9.07;100.00;99545.47;1455194;90;21449;-81
2023/11/14 06:00:39;;;;;;;13.83;9.27;;;;;;;9.10;100.00;99547.78;1452977;90;21722;-85
2023/11/14 06:03:05;;;;;;;17.60;10.23;;;;;;;9.12;100.00;99549.75;1448075;90;21391;-86
2023/11/14 06:05:32;;;;;;;12.93;9.73;;;;;;;9.14;100.00;99547.78;1452862;90;21382;-82
2023/11/14 06:07:59;;;;;;;19.33;10.70;;;;;;;9.14;100.00;99544.65;1451556;90;21504;-85
2023/11/14 06:10:25;;;;;;;18.00;9.70;;;;;;;9.17;100.00;99532.95;1441541;90;22483;-84
2023/11/14 06:12:51;;;;;;;17.17;9.77;;;;;;;9.18;100.00;99531.48;1455862;90;21604;-85
2023/11/14 06:15:18;;;;;;;17.53;9.10;;;;;;;9.20;100.00;99527.34;1451193;90;21457;-85
2023/11/14 06:17:44;;;;;;;14.40;8.97;;;;;;;9.22;100.00;99514.31;1444936;90;21563;-82
2023/11/14 06:20:14;;;;;;;16.80;9.30;;;;;;;9.22;100.00;99501.62;1446314;90;21361;-85
2023/11/14 06:22:40;;;;;;;16.80;10.00;;;;;;;9.27;100.00;99503.28;1459804;89;22394;-84
2023/11/14 06:25:08;;;;;;;11.40;9.40;;;;;;;9.31;100.00;99505.10;1454931;90;21545;-83
2023/11/14 06:27:34;;;;;;;17.37;10.13;;;;;;;9.29;100.00;99491.22;1535480;89;21392;-82
2023/11/14 06:30:01;;;;;;;15.83;9.57;;;;;;;9.31;100.00;99492.72;1379721;89;21280;-82
2023/11/14 06:32:28;;;;;;;15.80;9.10;;;;;;;9.32;100.00;99485.62;1378979;90;22181;-83
2023/11/14 06:34:55;;;;;;;13.73;9.73;;;;;;;9.33;100.00;99505.77;1383762;90;21288;-83
2023/11/14 06:37:22;;;;;;;13.43;8.47;;;;;;;9.36;100.00;99527.89;1535668;90;21140;-86
2023/11/14 06:39:48;;;;;;;21.47;10.37;;;;;;;9.40;100.00;99541.92;1378879;90;22057;-85
2023/11/14 06:42:14;;;;;;;15.90;10.03;;;;;;;9.43;100.00;99544.23;1379518;89;22192;-85
2023/11/14 06:44:44;;;;;;;15.50;9.80;;;;;;;9.44;100.00;99576.28;1379668;90;21394;-80
2023/11/14 06:47:10;;;;;;;16.07;9.13;;;;;;;9.51;100.00;99576.95;1379191;90;21405;-82
2023/11/14 06:49:36;;;;;;;15.63;8.60;;;;;;;9.53;100.00;99573.16;1384702;90;21457;-80
2023/11/14 06:52:03;;;;;;;12.97;8.53;;;;;;;9.57;100.00;99557.31;1384884;89;22313;-80
2023/11/14 06:54:29;;;;;;;14.93;7.63;;;;;;;9.60;100.00;99557.48;1379333;90;21243;-82
2023/11/14 06:56:55;;;;;;;17.50;8.17;;;;;;;9.62;100.00;99576.65;1385630;89;21449;-79
2023/11/14 06:59:22;;;;;;;11.13;8.53;;;;;;;9.66;100.00;99567.40;1405173;90;21440;-81
2023/11/14 07:01:52;;;;;;;12.70;7.80;;;;;;;9.71;100.00;99566.42;1379729;90;21398;-81
2023/11/14 07:04:19;;;;;;;13.93;7.87;;;;;;;9.75;100.00;99578.30;1378507;89;21243;-82
2023/11/14 07:06:45;;;;;;;14.07;8.23;;;;;;;9.82;100.00;99599.64;1378441;90;21243;-84
2023/11/14 07:09:15;;;;;;;16.17;8.93;;;;;;;9.84;100.00;99593.20;1385822;90;21302;-84
2023/11/14 07:11:40;;;;;;;12.33;8.07;;;;;;;9.85;100.00;99621.28;1377340;89;21442;-84
2023/11/14 07:14:06;;;;;;;16.23;8.93;;;;;;;9.87;100.00;99619.81;1379859;89;22092;-83
2023/11/14 07:16:33;;;;;;;13.80;8.73;;;;;;;9.90;100.00;99613.70;1378512;89;21392;-82
2023/11/14 07:18:59;;;;;;;19.10;8.97;;;;;;;9.94;100.00;99604.44;1384900;90;21338;-80
2023/11/14 07:21:30;;;;;;;15.87;9.37;;;;;;;9.97;100.00;99619.14;1368475;91;22264;-82
2023/11/14 07:23:54;;;;;;;14.23;8.43;;;;;;;10.00;100.00;99621.46;1376422;89;21295;-80
2023/11/14 07:26:21;;;;;;;13.40;9.00;;;;;;;10.04;100.00;99644.42;1379491;90;21398;-82
2023/11/14 07:28:47;;;;;;;17.97;9.50;;;;;;;10.05;100.00;99626.27;1379733;89;21331;-79
2023/11/14 07:31:13;;;;;;;17.27;10.20;;;;;;;10.09;100.00;99613.05;1385372;90;21278;-80
2023/11/14 07:33:39;;;;;;;15.73;8.87;;;;;;;10.11;100.00;99609.75;1379803;90;21486;-82
2023/11/14 07:36:06;;;;;;;13.20;7.83;;;;;;;10.16;100.00;99598.19;1379598;89;21228;-82
2023/11/14 07:38:32;;;;;;;15.87;8.50;;;;;;;10.18;100.00;99604.12;1378855;90;21330;-84
2023/11/14 07:40:58;;;;;;;13.17;7.97;;;;;;;10.19;100.00;99597.03;1403774;89;21398;-81
2023/11/14 07:43:26;;;;;;;21.70;9.33;;;;;;;10.24;100.00;99603.48;1535420;90;21213;-82
2023/11/14 07:45:52;;;;;;;15.87;6.80;;;;;;;10.26;100.00;99592.72;1378130;90;21486;-81
2023/11/14 07:48:18;;;;;;;20.03;8.73;;;;;;;10.29;100.00;99611.75;1379627;90;21309;-82
2023/11/14 07:50:45;;;;;;;17.93;7.80;;;;;;;10.31;100.00;99612.42;1380004;90;21480;-85
2023/11/14 07:53:11;;;;;;;14.93;8.60;;;;;;;10.30;100.00;99610.78;1519786;89;21353;-82
2023/11/14 07:55:38;;;;;;;15.73;8.87;;;;;;;10.36;100.00;99612.77;1372879;90;21435;-86
2023/11/14 07:58:04;;;;;;;23.07;13.23;;;;;;;10.37;100.00;99610.44;1384029;89;22328;-86
2023/11/14 08:00:33;;;;;;;16.50;9.47;;;;;;;10.37;100.00;99605.14;1384326;89;21250;-87
2023/11/14 08:02:59;;;;;;;17.73;8.03;;;;;;;10.41;100.00;99594.23;1382272;89;21279;-85
2023/11/14 08:05:27;;;;;;;13.67;7.77;;;;;;;10.43;100.00;99591.75;1384919;89;21257;-85
2023/11/14 08:07:53;;;;;;;12.93;7.50;;;;;;;10.46;100.00;99608.61;1382548;89;22226;-85
2023/11/14 08:10:20;;;;;;;15.03;8.40;;;;;;;10.44;100.00;99602.65;1384526;89;21332;-85
2023/11/14 08:12:47;;;;;;;13.60;8.27;;;;;;;10.45;100.00;99606.15;1383514;89;22264;-85
2023/11/14 08:15:13;;;;;;;13.57;8.67;;;;;;;10.42;100.00;99596.72;1378226;90;21279;-86
2023/11/14 08:17:39;;;;;;;13.57;7.70;;;;;;;10.39;100.00;99582.01;1384754;89;21427;-86
2023/11/14 08:20:06;;;;;;;10.50;6.83;;;;;;;10.36;100.00;99579.70;1384345;89;21235;-85
2023/11/14 08:22:35;;;;;;;12.73;6.47;;;;;;;10.37;100.00;99562.00;1371699;90;21257;-85
2023/11/14 08:25:00;;;;;;;11.50;7.87;;;;;;;10.39;100.00;99556.88;1533236;89;21361;-87
2023/11/14 08:27:30;;;;;;;10.97;7.40;;;;;;;10.44;100.00;99571.41;1541611;89;21147;-85
2023/11/14 08:29:57;;;;;;;12.40;6.83;;;;;;;10.49;100.00;99576.53;1381150;89;21243;-84
2023/11/14 08:32:23;;;;;;;11.83;6.93;;;;;;;10.54;100.00;99594.56;1384068;89;21420;-82
2023/11/14 08:34:50;;;;;;;13.47;8.27;;;;;;;10.61;100.00;99606.11;1383925;89;21258;-86
2023/11/14 08:37:16;;;;;;;13.63;7.60;;;;;;;10.69;100.00;99601.31;1436016;89;21389;-81
2023/11/14 08:39:42;;;;;;;11.60;7.43;;;;;;;10.71;100.00;99610.73;1457594;89;22645;-82
2023/11/14 08:42:11;;;;;;;11.17;6.93;;;;;;;10.76;100.00;99620.33;1455273;89;21346;-81
2023/11/14 08:44:37;;;;;;;14.00;8.33;;;;;;;10.77;100.00;99608.73;1458856;89;21426;-80
2023/11/14 08:47:04;;;;;;;16.50;9.13;;;;;;;10.79;100.00;99606.75;1462899;89;21607;-82
2023/11/14 08:49:30;;;;;;;12.80;7.60;;;;;;;10.80;100.00;99613.69;1456055;89;21567;-79
2023/11/14 08:51:57;;;;;;;10.80;6.87;;;;;;;10.79;100.00;99623.95;1456963;89;21456;-81
2023/11/14 08:54:24;;;;;;;14.20;8.33;;;;;;;10.79;100.00;99617.34;1454996;89;22233;-81
2023/11/14 08:56:50;;;;;;;11.47;6.93;;;;;;;10.78;100.00;99622.78;1451689;89;21382;-81
2023/11/14 08:59:16;;;;;;;12.70;8.07;;;;;;;10.79;100.00;99620.48;1456411;89;21397;-82
2023/11/14 09:01:47;;;;;;;14.20;8.13;;;;;;;10.80;100.00;99636.19;1458421;89;21317;-79
2023/11/14 09:04:14;;;;;;;12.97;7.13;;;;;;;10.81;100.00;99644.95;1451324;90;21345;-80
2023/11/14 09:06:41;;;;;;;11.97;7.87;;;;;;;10.82;100.00;99650.09;1449268;90;21427;-80
2023/11/14 09:09:07;;;;;;;15.37;8.07;;;;;;;10.82;100.00;99648.77;1449239;90;22351;-79
2023/11/14 09:11:33;;;;;;;16.33;8.20;;;;;;;10.79;100.00;99663.66;1448696;90;21390;-78
2023/11/14 09:14:02;;;;;;;9.30;6.80;;;;;;;10.80;100.00;99663.98;1443529;90;21558;-79
2023/11/14 09:16:28;;;;;;;15.87;8.60;;;;;;;10.81;100.00;99664.30;1452987;90;21391;-79
2023/11/14 09:18:55;;;;;;;9.57;6.43;;;;;;;10.83;100.00;99670.77;1442408;90;22300;-79
2023/11/14 09:21:21;;;;;;;10.57;6.20;;;;;;;10.85;100.00;99682.02;1378419;89;21532;-79
2023/11/14 09:23:47;;;;;;;16.20;7.37;;;;;;;10.86;100.00;99680.19;1385020;89;21354;-81
2023/11/14 09:26:14;;;;;;;17.10;7.57;;;;;;;10.89;100.00;99679.86;1379518;90;22283;-80
2023/11/14 09:28:40;;;;;;;15.60;8.23;;;;;;;10.91;100.00;99678.70;1387820;90;22432;-78
2023/11/14 09:31:08;;;;;;;17.70;10.13;;;;;;;10.93;100.00;99678.52;1458199;89;22506;-80
2023/11/14 09:33:38;;;;;;;17.03;9.67;;;;;;;10.92;100.00;99671.58;1456870;90;21338;-80
2023/11/14 09:36:06;;;;;;;17.60;8.33;;;;;;;10.96;100.00;99678.17;1453167;89;21376;-79
2023/11/14 09:38:32;;;;;;;20.63;12.63;;;;;;;10.97;100.00;99677.20;1377212;90;21637;-76
2023/11/14 09:41:02;;;;;;;12.97;8.43;;;;;;;10.99;100.00;99668.09;1380003;90;21243;-79
2023/11/14 09:43:28;;;;;;;12.20;7.93;;;;;;;11.02;100.00;99671.73;1528604;90;21280;-80
2023/11/14 09:46:00;;;;;;;13.57;8.20;;;;;;;11.04;100.00;99672.87;1377764;90;21510;-80
2023/11/14 09:48:24;;;;;;;16.00;8.27;;;;;;;11.10;100.00;99677.98;1375747;93;21309;-79
2023/11/14 09:50:52;;;;;;;12.57;8.33;;;;;;;11.15;100.00;99664.56;1379278;89;22293;-80
2023/11/14 09:53:26;;;;;;;15.87;7.83;;;;;;;11.23;100.00;99665.05;1391997;89;21368;-80
2023/11/14 09:55:53;;;;;;;11.67;8.37;;;;;;;11.25;100.00;99659.91;1380251;89;21353;-80
2023/11/14 09:58:23;;;;;;;13.80;8.17;;;;;;;11.26;100.00;99660.73;1384088;89;21470;-79
2023/11/14 10:00:50;;;;;;;12.73;8.90;;;;;;;11.30;100.00;99664.69;1380852;89;21339;-79
2023/11/14 10:03:17;;;;;;;12.97;8.70;;;;;;;11.32;100.00;99668.50;1383965;89;21228;-78
2023/11/14 10:05:44;;;;;;;15.17;7.87;;;;;;;11.36;100.00;99671.94;1388903;89;22270;-79
2023/11/14 10:08:13;;;;;;;14.33;7.07;;;;;;;11.38;100.00;99658.54;1384383;89;21184;-79
2023/11/14 10:10:44;;;;;;;12.57;7.20;;;;;;;11.40;100.00;99662.67;1380817;89;21339;-79
2023/11/14 10:13:22;;;;;;;14.80;7.80;;;;;;;11.41;100.00;99666.97;1394648;90;21490;-80
2023/11/14 10:15:49;;;;;;;9.10;6.17;;;;;;;11.42;100.00;99659.84;1386159;89;21464;-79
2023/11/14 10:18:32;;;;;;;9.07;6.50;;;;;;;11.42;100.00;99662.48;1384425;89;21309;-80
2023/11/14 10:20:58;;;;;;;12.80;6.37;;;;;;;11.45;100.00;99650.22;1541569;89;22013;-80
2023/11/14 10:23:34;;;;;;;12.30;6.73;;;;;;;11.46;100.00;99651.89;1384678;89;21272;-80
2023/11/14 10:26:06;;;;;;;13.77;7.63;;;;;;;11.42;100.00;99640.81;1522755;89;21368;-79
2023/11/14 10:28:32;;;;;;;13.07;6.10;;;;;;;11.44;100.00;99639.30;1381861;89;21257;-79
2023/11/14 10:30:59;;;;;;;11.83;7.47;;;;;;;11.45;100.00;99635.17;1384327;89;21264;-80
2023/11/14 10:33:31;;;;;;;12.00;7.40;;;;;;;11.44;100.00;99626.87;1384285;89;22087;-80
2023/11/14 10:36:07;;;;;;;12.87;7.03;;;;;;;11.46;100.00;99626.72;1541662;89;21376;-80
2023/11/14 10:38:29;;;;;;;12.20;6.33;;;;;;;11.46;100.00;99624.06;1474766;89;21316;-80
2023/11/14 10:40:56;;;;;;;9.90;6.07;;;;;;;11.45;100.00;99608.67;1384317;89;21406;-80
2023/11/14 10:43:31;;;;;;;10.00;6.57;;;;;;;11.45;100.00;99617.95;1384707;89;21213;-80
2023/11/14 10:46:11;;;;;;;17.70;10.30;;;;;;;11.46;100.00;99632.84;1380657;89;21331;-78
2023/11/14 10:48:37;;;;;;;19.27;11.03;;;;;;;11.50;100.00;99642.08;1519666;89;21486;-80
2023/11/14 10:51:06;;;;;;;12.33;8.87;;;;;;;11.55;100.00;99628.32;1385056;89;21258;-80
2023/11/14 10:53:33;;;;;;;21.77;9.30;;;;;;;11.59;100.00;99632.27;1384338;89;21347;-78
2023/11/14 10:56:05;;;;;;;16.53;7.57;;;;;;;11.64;100.00;99635.23;1378823;89;21402;-79
2023/11/14 10:58:36;;;;;;;12.67;5.40;;;;;;;11.70;100.00;99631.05;1478992;89;21368;-81
2023/11/14 11:01:04;;;;;;;11.90;5.27;;;;;;;11.74;100.00;99615.97;1535104;89;22175;-80
2023/11/14 11:03:32;;;;;;;12.47;5.90;;;;;;;11.78;100.00;99615.11;1447675;90;22337;-80
2023/11/14 11:05:58;;;;;;;12.13;6.03;;;;;;;11.83;100.00;99606.64;1445369;90;21951;-80
2023/11/14 11:08:25;;;;;;;8.70;5.07;;;;;;;11.85;100.00;99618.73;1446267;90;21405;-80
2023/11/14 11:10:53;;;;;;;8.00;5.30;;;;;;;11.88;100.00;99618.88;1449306;90;21523;-80
2023/11/14 11:13:26;;;;;;;13.57;5.60;;;;;;;11.93;100.00;99621.84;1455793;89;21493;-79
2023/11/14 11:15:55;;;;;;;8.33;5.13;;;;;;;11.96;100.00;99610.37;1454577;90;21361;-80
2023/11/14 11:18:25;;;;;;;9.93;5.80;;;;;;;11.96;100.00;99606.90;1454168;89;21457;-84
2023/11/14 11:20:52;;;;;;;9.30;6.00;;;;;;;11.95;100.00;99588.02;1386432;89;21324;-80
2023/11/14 11:23:18;;;;;;;9.60;5.83;;;;;;;11.95;100.00;99575.58;1379868;89;21384;-79
2023/11/14 11:25:48;;;;;;;10.90;5.97;;;;;;;11.96;100.00;99583.03;1379062;89;21259;-82
2023/11/14 11:28:30;;;;;;;12.43;7.30;;;;;;;11.95;100.00;99580.06;1379008;89;22231;-79